Time;durP1;ratioP1;P1;durP2;ratioP2;P2;SDS_P1;SDS_P2;PMS_P1;PMS_P2;Temp;Humidity;BMP_temperature;BMP_pressure;BME280_temperature;BME280_humidity;BME280_pressure;Samples;Min_cycle;Max_cycle;Signal;HPM_P1;HPM_P2
2021/07/10 00:01:36;;;;;;;1999.90;999.90;;;;;;;21.96;64.18;95864.44;5069938;28;20606;-65
2021/07/10 00:04:05;;;;;;;1999.90;999.90;;;;;;;22.04;64.23;95866.06;5069926;28;20709;-65
2021/07/10 00:06:32;;;;;;;1999.90;999.90;;;;;;;21.92;64.51;95867.00;5069864;28;20741;-66
2021/07/10 00:09:00;;;;;;;1999.90;999.90;;;;;;;21.88;64.86;95870.72;5069845;28;20208;-65
2021/07/10 00:11:27;;;;;;;1999.90;999.90;;;;;;;21.93;64.96;95867.75;5070043;28;20224;-65
2021/07/10 00:13:55;;;;;;;1999.90;999.90;;;;;;;21.89;65.56;95862.41;5070017;28;20215;-65
2021/07/10 00:16:24;;;;;;;1999.90;999.90;;;;;;;21.76;65.68;95858.47;5063930;28;20257;-65
2021/07/10 00:18:51;;;;;;;1999.90;999.90;;;;;;;21.81;66.06;95854.75;5059254;28;20208;-66
2021/07/10 00:21:18;;;;;;;1999.90;999.90;;;;;;;21.81;65.77;95854.75;5069597;28;20295;-66
2021/07/10 00:23:45;;;;;;;1999.90;999.90;;;;;;;21.77;65.70;95853.91;5069823;28;20246;-65
2021/07/10 00:26:12;;;;;;;1999.90;999.90;;;;;;;21.76;66.03;95847.09;5069841;28;20196;-65
2021/07/10 00:28:40;;;;;;;1999.90;999.90;;;;;;;21.77;66.05;95849.38;5069328;28;20963;-65
2021/07/10 00:31:07;;;;;;;1999.90;999.90;;;;;;;21.69;66.66;95850.41;5069463;28;20232;-65
2021/07/10 00:33:35;;;;;;;1999.90;999.90;;;;;;;21.64;66.63;95847.28;5069385;28;20600;-66
2021/07/10 00:36:03;;;;;;;1999.90;999.90;;;;;;;21.62;66.89;95842.34;5069639;28;20204;-65
2021/07/10 00:38:30;;;;;;;1999.90;999.90;;;;;;;21.56;67.44;95832.44;5069546;28;20200;-65
2021/07/10 00:40:57;;;;;;;1999.90;999.90;;;;;;;21.53;67.69;95827.84;5069683;28;20587;-65
2021/07/10 00:43:24;;;;;;;1999.90;999.90;;;;;;;21.43;67.97;95814.09;5069427;28;20235;-65
2021/07/10 00:45:52;;;;;;;1999.90;999.90;;;;;;;21.40;68.29;95814.06;5069160;28;20200;-64
2021/07/10 00:48:19;;;;;;;1999.90;999.90;;;;;;;21.26;68.72;95809.31;5063811;28;20703;-65
2021/07/10 00:50:48;;;;;;;1999.90;999.90;;;;;;;21.30;68.63;95806.72;5049523;28;20201;-65
2021/07/10 00:53:15;;;;;;;1999.90;999.90;;;;;;;21.24;68.91;95811.53;5049316;28;20204;-65
2021/07/10 00:55:43;;;;;;;1999.90;999.90;;;;;;;21.19;68.45;95811.84;5049410;28;20690;-65
2021/07/10 00:58:11;;;;;;;1999.90;999.90;;;;;;;21.09;68.27;95820.31;5060306;28;20208;-65
2021/07/10 01:00:40;;;;;;;1999.90;999.90;;;;;;;21.05;68.95;95819.50;5068992;28;20242;-65
2021/07/10 01:03:09;;;;;;;1999.90;999.90;;;;;;;20.99;69.43;95811.09;5068949;28;20224;-65
2021/07/10 01:05:37;;;;;;;1999.90;999.90;;;;;;;21.02;69.35;95812.28;5069053;28;20228;-65
2021/07/10 01:08:07;;;;;;;1999.90;999.90;;;;;;;20.95;69.46;95822.72;5068912;28;20204;-65
2021/07/10 01:10:34;;;;;;;1999.90;999.90;;;;;;;20.93;70.15;95823.06;5068843;28;20291;-64
2021/07/10 01:13:02;;;;;;;1999.90;999.90;;;;;;;20.92;70.50;95823.44;5069245;28;20196;-65
2021/07/10 01:15:29;;;;;;;1999.90;999.90;;;;;;;21.01;70.00;95816.81;5068968;28;20208;-65
2021/07/10 01:17:57;;;;;;;1999.90;999.90;;;;;;;20.92;70.32;95820.81;5064143;28;20216;-64
2021/07/10 01:20:26;;;;;;;1999.90;999.90;;;;;;;21.02;69.79;95817.56;5053633;28;20215;-65
2021/07/10 01:22:57;;;;;;;1999.90;999.90;;;;;;;20.99;69.76;95818.25;5049068;28;20224;-65
2021/07/10 01:25:26;;;;;;;1999.90;999.90;;;;;;;21.01;69.55;95808.13;5048576;28;20205;-65
2021/07/10 01:27:55;;;;;;;1999.90;999.90;;;;;;;21.01;69.64;95802.84;5061439;28;20228;-64
2021/07/10 01:30:23;;;;;;;1999.90;999.90;;;;;;;20.98;69.42;95798.22;5068651;28;20195;-65
2021/07/10 01:32:53;;;;;;;1999.90;999.90;;;;;;;20.93;69.68;95795.88;5068627;28;20197;-65
2021/07/10 01:35:21;;;;;;;1999.90;999.90;;;;;;;20.97;69.58;95792.19;5068635;28;20211;-63
2021/07/10 01:37:48;;;;;;;1999.90;999.90;;;;;;;20.95;69.09;95783.09;5068585;28;20592;-64
2021/07/10 01:40:19;;;;;;;1999.90;999.90;;;;;;;20.91;69.32;95772.47;5068617;28;20197;-65
2021/07/10 01:42:47;;;;;;;1999.90;999.90;;;;;;;20.92;68.91;95767.94;5068586;28;20212;-64
2021/07/10 01:45:17;;;;;;;1999.90;999.90;;;;;;;20.95;68.49;95767.25;5068493;28;20200;-65
2021/07/10 01:47:44;;;;;;;1999.90;999.90;;;;;;;20.76;68.99;95769.94;5063060;28;20196;-65
2021/07/10 01:50:12;;;;;;;1999.90;999.90;;;;;;;20.74;69.35;95772.16;5049034;28;20673;-65
2021/07/10 01:52:40;;;;;;;1999.90;999.90;;;;;;;20.80;69.06;95771.53;5064546;28;20204;-65
2021/07/10 01:55:10;;;;;;;1999.90;999.90;;;;;;;20.76;69.13;95769.94;5068415;28;20196;-65
2021/07/10 01:57:39;;;;;;;1999.90;999.90;;;;;;;20.74;69.28;95772.16;5068832;28;20672;-65
2021/07/10 02:00:09;;;;;;;1999.90;999.90;;;;;;;20.61;70.05;95784.75;5069238;28;20272;-65
2021/07/10 02:02:36;;;;;;;1999.90;999.90;;;;;;;20.66;69.69;95778.44;5070261;28;20220;-65
2021/07/10 02:05:04;;;;;;;1999.90;999.90;;;;;;;20.65;70.02;95779.53;5070505;28;20616;-65
2021/07/10 02:07:31;;;;;;;1999.90;999.90;;;;;;;20.69;70.15;95785.66;5064640;28;20203;-63
2021/07/10 02:09:59;;;;;;;1999.90;999.90;;;;;;;20.63;69.93;95788.56;5082343;28;20204;-65
2021/07/10 02:12:26;;;;;;;1999.90;999.90;;;;;;;20.67;70.31;95787.88;5069552;28;20212;-65
2021/07/10 02:14:55;;;;;;;1999.90;999.90;;;;;;;20.61;70.71;95790.81;5054464;28;20243;-65
2021/07/10 02:17:22;;;;;;;1999.90;999.90;;;;;;;20.67;70.70;95788.66;5067523;28;20204;-65
2021/07/10 02:19:49;;;;;;;1999.90;999.90;;;;;;;20.59;71.00;95795.66;5069071;28;20694;-65
2021/07/10 02:22:17;;;;;;;1999.90;999.90;;;;;;;20.52;71.57;95782.31;5071709;28;20211;-65
2021/07/10 02:24:44;;;;;;;1999.90;999.90;;;;;;;20.48;71.99;95786.00;5068391;28;20196;-64
2021/07/10 02:27:12;;;;;;;1999.90;999.90;;;;;;;20.47;71.92;95784.50;5052629;28;20209;-64
2021/07/10 02:29:39;;;;;;;1999.90;999.90;;;;;;;20.46;71.98;95793.53;5057081;28;20631;-64
2021/07/10 02:32:08;;;;;;;1999.90;999.90;;;;;;;20.44;72.31;95793.13;5071960;28;20280;-64
2021/07/10 02:34:35;;;;;;;1999.90;999.90;;;;;;;20.35;72.69;95798.59;5071542;28;20295;-64
2021/07/10 02:37:03;;;;;;;1999.90;999.90;;;;;;;20.37;72.79;95793.00;5071617;28;20583;-66
2021/07/10 02:39:30;;;;;;;1999.90;999.90;;;;;;;20.35;73.40;95792.56;5071341;28;20207;-65
2021/07/10 02:41:57;;;;;;;1999.90;999.90;;;;;;;20.26;73.92;95790.13;5071403;28;20193;-63
2021/07/10 02:44:24;;;;;;;1999.90;999.90;;;;;;;20.20;74.30;95791.50;5071145;28;20216;-66
2021/07/10 02:46:54;;;;;;;1999.90;999.90;;;;;;;20.26;74.61;95790.13;5072028;28;20199;-68
2021/07/10 02:49:22;;;;;;;1999.90;999.90;;;;;;;20.17;74.51;95787.66;5055212;28;20212;-68
2021/07/10 02:51:50;;;;;;;1999.90;999.90;;;;;;;20.11;75.29;95789.06;5051911;28;20227;-65
2021/07/10 02:54:17;;;;;;;1999.90;999.90;;;;;;;20.12;75.63;95789.84;5051296;28;20693;-65
2021/07/10 02:56:44;;;;;;;1999.90;999.90;;;;;;;20.10;75.71;95781.50;5051306;28;20221;-65
2021/07/10 02:59:11;;;;;;;1999.90;999.90;;;;;;;20.05;76.21;95779.88;5058663;28;20208;-62
2021/07/10 03:01:38;;;;;;;1999.90;999.90;;;;;;;20.05;76.19;95787.81;5070796;28;20687;-71
2021/07/10 03:04:05;;;;;;;1999.90;999.90;;;;;;;19.96;76.75;95789.13;5069418;28;20233;-77
2021/07/10 03:06:34;;;;;;;1999.90;999.90;;;;;;;19.93;77.46;95784.50;5069779;28;20193;-77
2021/07/10 03:09:01;;;;;;;1999.90;999.90;;;;;;;19.58;79.20;95780.00;5069867;28;20208;-64
2021/07/10 03:11:28;;;;;;;1999.90;999.90;;;;;;;19.43;80.61;95783.41;5066620;28;20215;-65
2021/07/10 03:13:55;;;;;;;1999.90;999.90;;;;;;;19.46;80.65;95782.75;5070872;28;20660;-65
2021/07/10 03:16:22;;;;;;;1999.90;999.90;;;;;;;19.28;81.87;95790.22;5071024;28;20201;-68
2021/07/10 03:18:50;;;;;;;1999.90;999.90;;;;;;;19.25;82.37;95784.88;5070798;28;20204;-71
2021/07/10 03:21:17;;;;;;;1999.90;999.90;;;;;;;19.36;82.36;95783.25;5070593;28;20287;-72
2021/07/10 03:23:45;;;;;;;1999.90;999.90;;;;;;;19.40;82.34;95785.97;5070396;28;20227;-70
2021/07/10 03:26:12;;;;;;;1999.90;999.90;;;;;;;19.53;81.45;95785.53;5070164;28;20196;-73
2021/07/10 03:28:40;;;;;;;1999.90;999.90;;;;;;;19.45;81.75;95778.59;5070593;28;20457;-72
2021/07/10 03:31:08;;;;;;;1999.90;999.90;;;;;;;19.59;81.61;95784.19;5069456;28;20452;-72
2021/07/10 03:33:37;;;;;;;1999.90;999.90;;;;;;;19.69;80.68;95780.25;5070396;28;20201;-73
2021/07/10 03:36:05;;;;;;;1999.90;999.90;;;;;;;19.70;80.39;95779.91;5070435;28;20706;-73
2021/07/10 03:38:33;;;;;;;1999.90;999.90;;;;;;;19.84;79.98;95776.03;5070211;28;20283;-73
2021/07/10 03:41:01;;;;;;;1999.90;999.90;;;;;;;19.84;79.50;95784.72;5069290;28;20207;-73
2021/07/10 03:43:29;;;;;;;1999.90;999.90;;;;;;;19.86;79.38;95781.75;5069644;28;20225;-77
2021/07/10 03:45:56;;;;;;;1999.90;999.90;;;;;;;19.87;79.46;95778.78;5070754;28;20220;-79
2021/07/10 03:48:24;;;;;;;1999.90;999.90;;;;;;;19.94;78.94;95784.19;5070377;28;20315;-73
2021/07/10 03:50:51;;;;;;;1999.90;999.90;;;;;;;20.07;78.70;95787.47;5067184;28;20227;-74
2021/07/10 03:53:18;;;;;;;1999.90;999.90;;;;;;;19.99;79.03;95786.53;5067436;28;20201;-72
2021/07/10 03:55:47;;;;;;;1999.90;999.90;;;;;;;20.01;79.19;95794.13;5066138;28;20795;-75
2021/07/10 03:58:16;;;;;;;1999.90;999.90;;;;;;;20.11;78.71;95789.06;5069371;28;20203;-70
2021/07/10 04:00:43;;;;;;;1999.90;999.90;;;;;;;20.12;78.64;95774.75;5068191;28;20200;-68
2021/07/10 04:03:10;;;;;;;1999.90;999.90;;;;;;;20.20;77.87;95779.06;5069072;28;20305;-69
2021/07/10 04:05:37;;;;;;;1999.90;999.90;;;;;;;20.23;77.27;95779.47;5067593;28;20196;-67
2021/07/10 04:08:05;;;;;;;1999.90;999.90;;;;;;;20.26;77.80;95784.84;5066718;28;20227;-66
2021/07/10 04:10:32;;;;;;;1999.90;999.90;;;;;;;20.30;77.62;95769.81;5066714;28;20196;-68
2021/07/10 04:12:59;;;;;;;1999.90;999.90;;;;;;;20.37;77.61;95771.88;5066890;28;20197;-68
2021/07/10 04:15:28;;;;;;;1999.90;999.90;;;;;;;20.48;77.62;95770.16;5066995;28;20196;-69
2021/07/10 04:17:55;;;;;;;1999.90;999.90;;;;;;;20.63;76.82;95764.81;5066667;28;20200;-69
2021/07/10 04:20:22;;;;;;;1999.90;999.90;;;;;;;20.73;76.10;95762.69;5067943;28;20205;-69
2021/07/10 04:22:49;;;;;;;1999.90;999.90;;;;;;;20.83;75.93;95764.75;5068918;28;20215;-67
2021/07/10 04:25:19;;;;;;;1999.90;999.90;;;;;;;20.94;75.03;95765.69;5069958;28;20211;-67
2021/07/10 04:27:46;;;;;;;1999.90;999.90;;;;;;;21.04;73.81;95773.03;5069640;28;20620;-67
2021/07/10 04:30:15;;;;;;;1999.90;999.90;;;;;;;21.25;72.23;95775.28;5069539;28;20747;-74
2021/07/10 04:32:45;;;;;;;1999.90;999.90;;;;;;;21.40;71.32;95777.81;5069560;28;20192;-68
2021/07/10 04:35:12;;;;;;;1999.90;999.90;;;;;;;21.71;70.56;95781.28;5069187;28;20196;-68
2021/07/10 04:37:40;;;;;;;1999.90;999.90;;;;;;;22.08;69.13;95778.75;5069479;28;20283;-68
2021/07/10 04:40:08;;;;;;;1999.90;999.90;;;;;;;22.43;68.85;95781.03;5069253;28;20204;-68
2021/07/10 04:42:36;;;;;;;1999.90;999.90;;;;;;;23.01;66.21;95781.28;5069263;28;20197;-67
2021/07/10 04:45:04;;;;;;;1999.90;999.90;;;;;;;23.36;62.96;95773.59;5068968;28;20227;-69
2021/07/10 04:47:31;;;;;;;1999.90;999.90;;;;;;;23.79;61.81;95773.91;5069621;28;20215;-69
2021/07/10 04:49:59;;;;;;;1999.90;999.90;;;;;;;24.03;60.24;95773.28;5064469;28;20200;-69
2021/07/10 04:52:28;;;;;;;1999.90;999.90;;;;;;;24.15;59.79;95778.28;5049149;28;20198;-70
2021/07/10 04:54:55;;;;;;;1999.90;999.90;;;;;;;24.56;57.90;95778.06;5049463;28;20221;-70
2021/07/10 04:57:22;;;;;;;1999.90;999.90;;;;;;;24.63;56.16;95780.72;5049185;28;20236;-68
2021/07/10 04:59:50;;;;;;;1999.90;999.90;;;;;;;24.64;55.65;95776.94;5049245;28;20486;-68
2021/07/10 05:02:17;;;;;;;1999.90;999.90;;;;;;;24.77;54.99;95776.19;5049464;28;20197;-73
2021/07/10 05:04:44;;;;;;;1999.90;999.90;;;;;;;24.90;54.04;95773.97;5049058;28;20704;-69
2021/07/10 05:07:12;;;;;;;1999.90;999.90;;;;;;;24.67;54.52;95776.94;5049012;28;20193;-69
2021/07/10 05:09:40;;;;;;;1999.90;999.90;;;;;;;24.42;55.75;95773.44;5048855;28;20205;-68
2021/07/10 05:12:08;;;;;;;1999.90;999.90;;;;;;;24.33;57.23;95779.13;5049017;28;20242;-69
2021/07/10 05:14:35;;;;;;;1999.90;999.90;;;;;;;24.18;55.95;95768.81;5048949;28;20196;-68
2021/07/10 05:17:02;;;;;;;1999.90;999.90;;;;;;;24.45;54.84;95783.34;5048859;28;20673;-68
2021/07/10 05:19:30;;;;;;;1999.90;999.90;;;;;;;24.60;55.32;95782.25;5063835;28;20698;-69
2021/07/10 05:21:57;;;;;;;1999.90;999.90;;;;;;;24.88;53.94;95780.81;5068880;28;20202;-68
2021/07/10 05:24:26;;;;;;;1999.90;999.90;;;;;;;24.91;54.71;95791.44;5068676;28;20310;-67
2021/07/10 05:26:53;;;;;;;1999.90;999.90;;;;;;;25.06;52.19;95785.00;5068745;28;20250;-68
2021/07/10 05:29:20;;;;;;;1999.90;999.90;;;;;;;25.06;53.06;95785.00;5068322;28;20252;-68
2021/07/10 05:31:48;;;;;;;1999.90;999.90;;;;;;;25.15;52.38;95789.94;5068707;28;20207;-67
2021/07/10 05:34:15;;;;;;;1999.90;999.90;;;;;;;25.01;53.94;95788.03;5070087;28;20200;-68
2021/07/10 05:36:42;;;;;;;1999.90;999.90;;;;;;;24.98;53.62;95785.38;5073506;28;20279;-68
2021/07/10 05:39:09;;;;;;;1999.90;999.90;;;;;;;25.22;53.40;95787.28;5073386;28;20206;-68
2021/07/10 05:41:38;;;;;;;1999.90;999.90;;;;;;;25.21;54.01;95786.53;5072818;28;20196;-67
2021/07/10 05:44:05;;;;;;;1999.90;999.90;;;;;;;25.46;53.74;95785.75;5072604;28;20220;-67
2021/07/10 05:46:32;;;;;;;1999.90;999.90;;;;;;;25.53;53.55;95788.41;5072881;28;20200;-68
2021/07/10 05:48:59;;;;;;;1999.90;999.90;;;;;;;25.73;52.13;95772.81;5072543;28;20200;-67
2021/07/10 05:51:27;;;;;;;1999.90;999.90;;;;;;;25.86;50.23;95780.00;5072486;28;20693;-67
2021/07/10 05:53:54;;;;;;;1999.90;999.90;;;;;;;25.80;50.51;95786.13;5072457;28;20702;-68
2021/07/10 05:56:21;;;;;;;1999.90;999.90;;;;;;;25.93;51.47;95784.56;5072541;28;20668;-68
2021/07/10 05:58:50;;;;;;;1999.90;999.90;;;;;;;25.92;49.17;95780.38;5072335;28;20203;-67
2021/07/10 06:01:17;;;;;;;1999.90;999.90;;;;;;;26.09;48.76;95784.91;5072524;28;20234;-67
2021/07/10 06:03:44;;;;;;;1999.90;999.90;;;;;;;26.07;50.11;95781.84;5072006;28;20228;-68
2021/07/10 06:06:11;;;;;;;1999.90;999.90;;;;;;;26.33;49.28;95784.06;5072467;28;20200;-67
2021/07/10 06:08:38;;;;;;;1999.90;999.90;;;;;;;26.12;50.60;95786.78;5072472;28;20207;-67
2021/07/10 06:11:05;;;;;;;1999.90;999.90;;;;;;;26.46;49.21;95781.72;5072162;28;20207;-68
2021/07/10 06:13:33;;;;;;;1999.90;999.90;;;;;;;26.54;48.15;95783.22;5072255;28;20645;-68
2021/07/10 06:16:01;;;;;;;1999.90;999.90;;;;;;;26.37;50.04;95786.72;5072047;28;20200;-68
2021/07/10 06:18:28;;;;;;;1999.90;999.90;;;;;;;26.52;49.33;95783.59;5072051;28;20208;-69
2021/07/10 06:20:55;;;;;;;1999.90;999.90;;;;;;;26.17;50.48;95794.38;5072031;28;20200;-69
2021/07/10 06:23:23;;;;;;;1999.90;999.90;;;;;;;26.41;48.33;95784.78;5071939;28;20700;-68
2021/07/10 06:25:50;;;;;;;1999.90;999.90;;;;;;;26.53;49.86;95785.13;5072150;28;20220;-69
2021/07/10 06:28:17;;;;;;;1999.90;999.90;;;;;;;26.28;50.27;95787.13;5071874;28;20229;-68
2021/07/10 06:30:45;;;;;;;1999.90;999.90;;;;;;;26.61;48.88;95793.84;5071758;28;20200;-68
2021/07/10 06:33:13;;;;;;;1999.90;999.90;;;;;;;26.63;49.16;95788.13;5071835;28;20215;-69
2021/07/10 06:35:41;;;;;;;1999.90;999.90;;;;;;;26.62;49.39;95797.25;5071683;28;20743;-68
2021/07/10 06:38:08;;;;;;;1999.90;999.90;;;;;;;26.68;49.53;95801.03;5071781;28;20755;-69
2021/07/10 06:40:36;;;;;;;1999.90;999.90;;;;;;;26.75;49.29;95788.41;5071789;28;20526;-68
2021/07/10 06:43:03;;;;;;;1999.90;999.90;;;;;;;27.06;47.33;95794.72;5071597;28;20200;-69
2021/07/10 06:45:30;;;;;;;1999.90;999.90;;;;;;;27.25;47.85;95794.19;5071050;28;20246;-69
2021/07/10 06:48:01;;;;;;;1999.90;999.90;;;;;;;27.21;48.04;95787.38;5071208;28;20222;-68
2021/07/10 06:50:30;;;;;;;1999.90;999.90;;;;;;;27.28;47.79;95785.41;5071446;28;20196;-68
2021/07/10 06:52:58;;;;;;;1999.90;999.90;;;;;;;27.48;46.13;95788.31;5071466;28;20755;-67
2021/07/10 06:55:25;;;;;;;1999.90;999.90;;;;;;;27.56;46.85;95789.00;5071357;28;20754;-69
2021/07/10 06:57:52;;;;;;;1999.90;999.90;;;;;;;27.69;45.40;95787.38;5071471;28;20291;-67
2021/07/10 07:00:20;;;;;;;1999.90;999.90;;;;;;;27.78;45.13;95790.34;5071172;28;20583;-67
2021/07/10 07:02:48;;;;;;;1999.90;999.90;;;;;;;27.87;44.45;95787.19;5071376;28;20575;-67
2021/07/10 07:05:15;;;;;;;1999.90;999.90;;;;;;;27.97;44.28;95784.41;5071140;28;20728;-67
2021/07/10 07:07:44;;;;;;;1999.90;999.90;;;;;;;27.51;44.70;95789.44;5071416;28;20570;-67
2021/07/10 07:10:13;;;;;;;1999.90;999.90;;;;;;;27.71;44.77;95791.16;5071280;28;20748;-67
2021/07/10 07:12:41;;;;;;;1999.90;999.90;;;;;;;27.93;44.60;95791.72;5071249;28;20200;-68
2021/07/10 07:15:10;;;;;;;1999.90;999.90;;;;;;;28.27;43.41;95789.06;5070924;28;20661;-68
2021/07/10 07:17:38;;;;;;;1999.90;999.90;;;;;;;28.31;43.47;95789.78;5071172;28;20585;-67
2021/07/10 07:20:07;;;;;;;1999.90;999.90;;;;;;;27.95;43.48;95781.38;5070872;28;20288;-68
2021/07/10 07:22:34;;;;;;;1999.90;999.90;;;;;;;28.43;42.03;95785.81;5070893;28;20200;-67
2021/07/10 07:25:05;;;;;;;1999.90;999.90;;;;;;;28.32;43.65;95779.84;5070918;28;20231;-67
2021/07/10 07:27:33;;;;;;;1999.90;999.90;;;;;;;28.75;42.36;95780.06;5070683;28;20275;-67
2021/07/10 07:30:00;;;;;;;1999.90;999.90;;;;;;;28.87;42.00;95782.97;5070683;28;20185;-68
2021/07/10 07:32:29;;;;;;;1999.90;999.90;;;;;;;28.83;41.45;95776.16;5070260;28;20196;-67
2021/07/10 07:34:56;;;;;;;1999.90;999.90;;;;;;;28.62;42.04;95771.81;5070669;28;20189;-68
2021/07/10 07:37:23;;;;;;;1999.90;999.90;;;;;;;29.02;39.82;95773.56;5070719;28;20668;-68
2021/07/10 07:39:51;;;;;;;1999.90;999.90;;;;;;;29.25;41.56;95780.06;5070852;28;20196;-68
2021/07/10 07:42:19;;;;;;;1999.90;999.90;;;;;;;29.48;39.95;95777.44;5070697;28;20223;-68
2021/07/10 07:44:47;;;;;;;1999.90;999.90;;;;;;;29.64;40.79;95780.22;5070710;28;20224;-68
2021/07/10 07:47:17;;;;;;;1999.90;999.90;;;;;;;29.67;40.39;95774.03;5070278;28;20199;-68
2021/07/10 07:49:45;;;;;;;1999.90;999.90;;;;;;;29.54;41.06;95769.69;5070517;28;20200;-68
2021/07/10 07:52:13;;;;;;;1999.90;999.90;;;;;;;29.76;40.23;95771.56;5070274;28;20196;-69
2021/07/10 07:54:40;;;;;;;1999.90;999.90;;;;;;;30.01;39.37;95765.78;5070274;28;20253;-69
2021/07/10 07:57:08;;;;;;;1999.90;999.90;;;;;;;29.84;39.95;95764.91;5070059;28;20219;-69
2021/07/10 07:59:37;;;;;;;1999.90;999.90;;;;;;;29.80;40.41;95764.22;5069491;28;20930;-69
2021/07/10 08:02:05;;;;;;;1999.90;999.90;;;;;;;29.81;41.11;95763.06;5070480;28;20734;-70
2021/07/10 08:04:32;;;;;;;1999.90;999.90;;;;;;;30.17;38.93;95759.72;5070001;28;20699;-70
2021/07/10 08:06:59;;;;;;;1999.90;999.90;;;;;;;30.04;39.53;95769.56;5070273;28;20200;-70
2021/07/10 08:09:28;;;;;;;1999.90;999.90;;;;;;;30.21;38.63;95758.50;5070221;28;20196;-69
2021/07/10 08:11:55;;;;;;;1999.90;999.90;;;;;;;29.96;38.35;95757.47;5070205;28;20196;-70
2021/07/10 08:14:22;;;;;;;1999.90;999.90;;;;;;;29.91;38.29;95745.28;5069906;28;20287;-70
2021/07/10 08:16:52;;;;;;;1999.90;999.90;;;;;;;30.04;39.79;95746.19;5070002;28;20247;-70
2021/07/10 08:19:19;;;;;;;1999.90;999.90;;;;;;;29.68;41.59;95748.78;5069567;28;20204;-69
2021/07/10 08:21:47;;;;;;;1999.90;999.90;;;;;;;29.80;41.59;95748.16;5078109;28;20208;-70
2021/07/10 08:24:14;;;;;;;1999.90;999.90;;;;;;;30.09;40.57;95742.28;5070722;28;20204;-70
2021/07/10 08:26:41;;;;;;;1999.90;999.90;;;;;;;29.98;40.48;95739.06;5069625;28;20196;-70
2021/07/10 08:29:09;;;;;;;1999.90;999.90;;;;;;;30.24;41.68;95743.47;5069373;28;20229;-69
2021/07/10 08:31:36;;;;;;;1999.90;999.90;;;;;;;30.47;40.42;95738.06;5069710;28;20203;-69
2021/07/10 08:34:05;;;;;;;1999.90;999.90;;;;;;;30.13;41.72;95734.91;5069549;28;20684;-69
2021/07/10 08:36:32;;;;;;;1999.90;999.90;;;;;;;30.46;39.84;95743.81;5069766;28;20583;-69
2021/07/10 08:38:59;;;;;;;1999.90;999.90;;;;;;;30.44;39.25;95738.13;5069354;28;20688;-70
2021/07/10 08:41:26;;;;;;;1999.90;999.90;;;;;;;30.45;39.24;95740.38;5069304;28;20390;-70
2021/07/10 08:43:54;;;;;;;1999.90;999.90;;;;;;;30.13;40.25;95738.34;5069486;28;20216;-71
2021/07/10 08:46:21;;;;;;;1999.90;999.90;;;;;;;30.46;40.65;95741.13;5069134;28;20700;-70
2021/07/10 08:48:49;;;;;;;1999.90;999.90;;;;;;;30.46;39.24;95739.22;5069367;28;20196;-70
2021/07/10 08:51:18;;;;;;;1999.90;999.90;;;;;;;30.49;40.70;95738.38;5069521;28;20208;-70
2021/07/10 08:53:46;;;;;;;1999.90;999.90;;;;;;;30.41;40.99;95734.31;5069275;28;20276;-70
2021/07/10 08:56:13;;;;;;;1999.90;999.90;;;;;;;30.71;39.52;95731.38;5069572;28;20243;-70
2021/07/10 08:58:40;;;;;;;1999.90;999.90;;;;;;;30.78;39.83;95733.88;5069235;28;20291;-70
2021/07/10 09:01:10;;;;;;;1999.90;999.90;;;;;;;30.72;40.19;95732.13;5068932;28;20196;-69
2021/07/10 09:03:39;;;;;;;1999.90;999.90;;;;;;;31.17;37.36;95724.97;5069160;28;20192;-70
2021/07/10 09:06:06;;;;;;;1999.90;999.90;;;;;;;31.32;37.08;95725.34;5068772;28;20220;-68
2021/07/10 09:08:35;;;;;;;1999.90;999.90;;;;;;;31.27;36.40;95723.19;5068499;28;20283;-69
2021/07/10 09:11:05;;;;;;;1999.90;999.90;;;;;;;30.96;36.46;95730.06;5068683;28;20719;-69
2021/07/10 09:13:35;;;;;;;1999.90;999.90;;;;;;;30.99;35.01;95729.19;5068913;28;20686;-70
2021/07/10 09:16:11;;;;;;;1999.90;999.90;;;;;;;31.15;37.23;95732.66;5069142;28;20278;-69
2021/07/10 09:18:46;;;;;;;1999.90;999.90;;;;;;;31.56;34.99;95724.00;5068466;28;20196;-69
2021/07/10 09:21:16;;;;;;;1999.90;999.90;;;;;;;31.53;36.35;95724.78;5068333;28;20199;-70
2021/07/10 09:23:46;;;;;;;1999.90;999.90;;;;;;;31.54;35.38;95729.00;5069099;28;20211;-69
2021/07/10 09:26:25;;;;;;;1999.90;999.90;;;;;;;31.64;34.14;95724.56;5068963;28;20973;-70
2021/07/10 09:29:02;;;;;;;1999.90;999.90;;;;;;;31.65;34.95;95722.63;5068402;28;20230;-70
2021/07/10 09:31:33;;;;;;;1999.90;999.90;;;;;;;31.63;34.91;95722.31;5069089;28;20192;-70
2021/07/10 09:34:10;;;;;;;1999.90;999.90;;;;;;;31.55;35.09;95727.06;5069050;28;20962;-70
2021/07/10 09:36:49;;;;;;;1999.90;999.90;;;;;;;31.55;33.83;95719.00;5069055;28;20212;-70
2021/07/10 09:39:18;;;;;;;1999.90;999.90;;;;;;;31.71;35.18;95718.25;5068794;28;20677;-69
2021/07/10 09:41:45;;;;;;;1999.90;999.90;;;;;;;31.56;32.81;95720.53;5068698;28;20291;-70
2021/07/10 09:44:15;;;;;;;1999.90;999.90;;;;;;;31.29;34.12;95720.81;5068707;28;20196;-70
2021/07/10 09:46:43;;;;;;;1999.90;999.90;;;;;;;31.37;33.08;95708.72;5068726;28;20705;-73
2021/07/10 09:49:26;;;;;;;1999.90;999.90;;;;;;;31.13;33.45;95724.28;5068564;28;20290;-71
2021/07/10 09:52:05;;;;;;;1999.90;999.90;;;;;;;31.21;33.63;95716.81;5068944;28;20253;-73
2021/07/10 09:54:36;;;;;;;1999.90;999.90;;;;;;;31.42;33.17;95707.47;5068619;28;20185;-74
2021/07/10 09:57:07;;;;;;;1999.90;999.90;;;;;;;31.23;33.01;95700.28;5068797;28;20267;-75
2021/07/10 09:59:37;;;;;;;1999.90;999.90;;;;;;;30.82;33.71;95712.34;5068652;28;20185;-75
2021/07/10 10:02:15;;;;;;;1999.90;999.90;;;;;;;30.78;33.03;95715.09;5069116;28;20262;-75
2021/07/10 10:04:42;;;;;;;1999.90;999.90;;;;;;;30.69;33.93;95700.75;5068566;28;20591;-76
2021/07/10 10:07:12;;;;;;;1999.90;999.90;;;;;;;31.01;34.59;95703.44;5068767;28;20201;-75
2021/07/10 10:09:41;;;;;;;1999.90;999.90;;;;;;;31.09;34.66;95706.75;5068375;28;20203;-70
2021/07/10 10:12:11;;;;;;;1999.90;999.90;;;;;;;31.35;33.59;95707.63;5068223;28;20230;-71
2021/07/10 10:14:43;;;;;;;1999.90;999.90;;;;;;;31.20;33.30;95701.88;5068643;28;20246;-67
2021/07/10 10:17:10;;;;;;;1999.90;999.90;;;;;;;31.01;34.60;95702.69;5068319;28;20193;-72
2021/07/10 10:19:38;;;;;;;1999.90;999.90;;;;;;;31.02;34.16;95704.25;5068180;28;20208;-72
2021/07/10 10:22:08;;;;;;;1999.90;999.90;;;;;;;31.09;34.10;95704.81;5070347;28;20291;-72
2021/07/10 10:24:37;;;;;;;1999.90;999.90;;;;;;;31.35;34.96;95703.00;5072582;28;20946;-72
2021/07/10 10:27:08;;;;;;;1999.90;999.90;;;;;;;31.29;33.67;95707.38;5072110;28;20220;-71
2021/07/10 10:29:36;;;;;;;1999.90;999.90;;;;;;;31.35;34.10;95702.25;5071944;28;20239;-72
2021/07/10 10:32:06;;;;;;;1999.90;999.90;;;;;;;31.37;34.09;95689.94;5071758;28;20203;-73
2021/07/10 10:34:33;;;;;;;1999.90;999.90;;;;;;;31.36;34.55;95696.47;5071923;28;20250;-72
2021/07/10 10:37:01;;;;;;;1999.90;999.90;;;;;;;31.25;32.03;95687.16;5071823;28;20638;-71
2021/07/10 10:39:30;;;;;;;1999.90;999.90;;;;;;;31.28;33.16;95695.16;5071729;28;20204;-72
2021/07/10 10:41:59;;;;;;;1999.90;999.90;;;;;;;31.30;32.88;95697.41;5071877;28;20574;-70
2021/07/10 10:44:36;;;;;;;1999.90;999.90;;;;;;;31.51;32.73;95700.28;5071578;28;20196;-71
2021/07/10 10:47:04;;;;;;;1999.90;999.90;;;;;;;31.60;32.59;95689.72;5071838;28;20209;-71
2021/07/10 10:49:41;;;;;;;1999.90;999.90;;;;;;;31.67;34.39;95688.78;5071517;28;20200;-71
2021/07/10 10:52:36;;;;;;;1999.90;999.90;;;;;;;31.62;31.82;95689.28;5071965;28;20189;-70
2021/07/10 10:55:10;;;;;;;1999.90;999.90;;;;;;;31.29;32.79;95685.91;5071528;28;20185;-71
2021/07/10 10:57:42;;;;;;;1999.90;999.90;;;;;;;31.59;32.91;95684.75;5071356;28;20278;-71
2021/07/10 11:00:15;;;;;;;1999.90;999.90;;;;;;;31.77;32.96;95681.59;5071765;28;20246;-71